Time;durP1;ratioP1;P1;durP2;ratioP2;P2;SDS_P1;SDS_P2;PMS_P1;PMS_P2;Temp;Humidity;BMP_temperature;BMP_pressure;BME280_temperature;BME280_humidity;BME280_pressure;Samples;Min_cycle;Max_cycle;Signal;HPM_P1;HPM_P2
2023/10/10 00:01:25;;;;;;;12.88;3.20;;;14.40;99.90;;;;;;4990900;28;20042;-60
2023/10/10 00:03:51;;;;;;;12.40;4.05;;;14.40;99.90;;;;;;4990721;28;20042;-60
2023/10/10 00:06:22;;;;;;;13.98;4.60;;;14.50;99.90;;;;;;4995047;28;20078;-59
2023/10/10 00:08:50;;;;;;;17.13;3.90;;;14.50;99.90;;;;;;4986783;28;20046;-60
2023/10/10 00:11:18;;;;;;;10.30;3.25;;;14.60;99.90;;;;;;4986304;28;20129;-58
2023/10/10 00:13:47;;;;;;;14.88;3.40;;;14.50;99.90;;;;;;4986578;28;20100;-59
2023/10/10 00:16:34;;;;;;;10.57;3.42;;;14.60;99.90;;;;;;4994684;28;20107;-59
2023/10/10 00:19:19;;;;;;;12.50;2.97;;;14.60;99.90;;;;;;4994960;28;20039;-60
2023/10/10 00:21:54;;;;;;;11.20;3.20;;;14.70;99.90;;;;;;4982404;28;20047;-59
2023/10/10 00:24:25;;;;;;;17.35;3.33;;;14.60;99.90;;;;;;4991906;28;20403;-60
2023/10/10 00:26:53;;;;;;;15.50;3.47;;;14.60;99.90;;;;;;4993084;28;20052;-60
2023/10/10 00:29:25;;;;;;;15.65;4.10;;;14.50;99.90;;;;;;4992827;28;20125;-59
2023/10/10 00:31:56;;;;;;;19.13;3.42;;;14.50;99.90;;;;;;4994123;28;20112;-58
2023/10/10 00:34:24;;;;;;;15.50;3.50;;;14.40;99.90;;;;;;4992637;28;20415;-59
2023/10/10 00:36:51;;;;;;;18.48;4.25;;;14.40;99.90;;;;;;4986461;28;20077;-60
2023/10/10 00:41:51;;;;;;;12.65;3.58;;;14.50;99.90;;;;;;4984304;28;20049;-57
2023/10/10 00:44:19;;;;;;;12.52;3.53;;;14.40;99.90;;;;;;4993387;28;20046;-59
2023/10/10 00:46:51;;;;;;;15.38;3.45;;;14.50;99.90;;;;;;4991695;28;20518;-60
2023/10/10 00:49:25;;;;;;;12.35;3.50;;;14.50;99.90;;;;;;4988635;28;20138;-58
2023/10/10 00:51:55;;;;;;;18.13;3.85;;;14.50;99.90;;;;;;4984790;28;20042;-60
2023/10/10 00:56:54;;;;;;;14.07;3.78;;;14.40;99.90;;;;;;4992725;28;20046;-59
2023/10/10 00:59:32;;;;;;;16.65;3.65;;;14.40;99.90;;;;;;4986695;28;20496;-58
2023/10/10 01:02:00;;;;;;;11.70;3.17;;;14.40;99.90;;;;;;4988959;28;20043;-60
2023/10/10 01:07:18;;;;;;;15.98;3.88;;;14.30;99.90;;;;;;4987953;28;20058;-60
2023/10/10 01:12:28;;;;;;;13.82;3.92;;;14.10;99.90;;;;;;4986165;28;20130;-60
2023/10/10 01:14:57;;;;;;;13.07;3.92;;;14.10;99.90;;;;;;4989706;28;20057;-59
2023/10/10 01:17:30;;;;;;;14.93;3.33;;;14.00;99.90;;;;;;4980701;28;20054;-60
2023/10/10 01:20:18;;;;;;;17.95;3.90;;;13.90;99.90;;;;;;4984904;28;20523;-59
2023/10/10 01:22:48;;;;;;;13.75;4.03;;;13.90;99.90;;;;;;5001823;28;20042;-59
2023/10/10 01:33:22;;;;;;;17.90;3.88;;;13.80;99.90;;;;;;4992385;28;20041;-60
2023/10/10 01:35:50;;;;;;;12.52;4.45;;;13.80;99.90;;;;;;4990833;28;20045;-60
2023/10/10 01:38:35;;;;;;;17.02;3.42;;;13.80;99.90;;;;;;4993441;28;20069;-60
2023/10/10 01:41:13;;;;;;;15.68;3.83;;;13.80;99.90;;;;;;4990399;28;20511;-60
2023/10/10 01:43:45;;;;;;;10.63;3.97;;;13.70;99.90;;;;;;4984643;28;20124;-59
2023/10/10 01:46:27;;;;;;;12.40;4.80;;;13.80;99.90;;;;;;4977406;28;20741;-58
2023/10/10 01:48:55;;;;;;;19.52;3.90;;;13.70;99.90;;;;;;4991296;28;20602;-59
2023/10/10 01:51:29;;;;;;;16.65;3.83;;;13.70;99.90;;;;;;4985159;28;20558;-60
2023/10/10 01:53:56;;;;;;;19.15;3.80;;;13.60;99.90;;;;;;4990359;28;20567;-59
2023/10/10 01:56:25;;;;;;;12.00;4.05;;;13.60;99.90;;;;;;4985773;28;20443;-59
2023/10/10 01:58:53;;;;;;;14.85;3.45;;;13.50;99.90;;;;;;4990132;28;20555;-59
2023/10/10 02:01:23;;;;;;;14.88;4.10;;;13.40;99.90;;;;;;4985266;28;20080;-59
2023/10/10 02:03:53;;;;;;;9.73;3.15;;;13.30;99.90;;;;;;4989818;28;20411;-60
2023/10/10 02:06:28;;;;;;;13.35;3.47;;;13.30;99.90;;;;;;4986534;28;20063;-59
2023/10/10 02:11:50;;;;;;;14.52;3.55;;;13.40;99.90;;;;;;4984914;28;20042;-60
2023/10/10 02:14:19;;;;;;;12.48;4.07;;;13.40;99.90;;;;;;4984792;28;20088;-59
2023/10/10 02:16:48;;;;;;;14.02;4.57;;;13.30;99.90;;;;;;4983782;28;20042;-60
2023/10/10 02:19:25;;;;;;;16.20;3.92;;;13.20;99.90;;;;;;4983423;28;20097;-60
2023/10/10 02:22:03;;;;;;;15.93;4.10;;;13.20;99.90;;;;;;4982198;28;20443;-59
2023/10/10 02:26:57;;;;;;;12.55;3.35;;;13.00;99.90;;;;;;5001759;28;20198;-60
2023/10/10 02:32:06;;;;;;;16.65;3.78;;;13.00;99.90;;;;;;4982548;28;20054;-60
2023/10/10 02:34:36;;;;;;;13.73;3.30;;;13.00;99.90;;;;;;4986928;28;20050;-59
2023/10/10 02:37:47;;;;;;;12.63;3.05;;;13.00;99.90;;;;;;4992185;28;20038;-60
2023/10/10 02:40:07;;;;;;;15.23;4.18;;;13.00;99.90;;;;;;4975301;28;20053;-61
2023/10/10 02:42:34;;;;;;;10.73;3.85;;;12.90;99.90;;;;;;4987537;28;20126;-60
2023/10/10 02:45:02;;;;;;;13.50;3.50;;;12.80;99.90;;;;;;4992122;28;20050;-60
2023/10/10 02:47:32;;;;;;;13.18;3.65;;;12.80;99.90;;;;;;4971054;28;20066;-60
2023/10/10 02:50:15;;;;;;;13.27;3.67;;;12.90;99.90;;;;;;4995835;28;20062;-60
2023/10/10 02:52:45;;;;;;;13.88;4.00;;;12.80;99.90;;;;;;4984482;28;20062;-60
2023/10/10 02:55:14;;;;;;;19.35;3.80;;;12.90;99.90;;;;;;4981135;28;20141;-61
2023/10/10 02:57:41;;;;;;;19.30;4.18;;;12.90;99.90;;;;;;4987380;28;20045;-59
2023/10/10 03:02:59;;;;;;;15.75;4.38;;;12.90;99.90;;;;;;4988613;28;19922;-60
2023/10/10 03:05:39;;;;;;;16.38;4.65;;;12.80;99.90;;;;;;4990489;28;20125;-60
2023/10/10 03:08:15;;;;;;;12.95;4.45;;;12.80;99.90;;;;;;4988843;28;20050;-60
2023/10/10 03:10:45;;;;;;;14.05;4.03;;;12.80;99.90;;;;;;4983420;28;20050;-60
2023/10/10 03:13:48;;;;;;;14.15;3.85;;;12.80;99.90;;;;;;4983119;28;20088;-58
2023/10/10 03:21:43;;;;;;;10.65;3.67;;;12.70;99.90;;;;;;4987164;28;20042;-59
2023/10/10 03:27:00;;;;;;;10.18;3.88;;;12.50;99.90;;;;;;4990346;28;20582;-58
2023/10/10 03:29:47;;;;;;;11.43;3.35;;;12.40;99.90;;;;;;4985718;28;20051;-60
2023/10/10 03:32:46;;;;;;;14.88;3.75;;;12.50;99.90;;;;;;4989054;28;20137;-59
2023/10/10 03:35:33;;;;;;;14.15;3.53;;;12.40;99.90;;;;;;4987214;28;20061;-60
2023/10/10 03:38:26;;;;;;;20.00;4.63;;;12.40;99.90;;;;;;4991299;28;20053;-60
2023/10/10 03:41:24;;;;;;;14.68;4.07;;;12.40;99.90;;;;;;4996624;28;20038;-60
2023/10/10 05:25:55;;;;;;;9.65;3.92;;;12.20;99.90;;;;;;4984208;28;20106;-59
2023/10/10 05:28:23;;;;;;;11.85;3.70;;;12.10;99.90;;;;;;4986181;28;20049;-60
2023/10/10 05:30:55;;;;;;;16.58;5.00;;;12.10;99.90;;;;;;4987664;28;20092;-60
2023/10/10 05:33:22;;;;;;;14.70;4.53;;;12.00;99.90;;;;;;4981700;28;20055;-60
2023/10/10 05:35:57;;;;;;;16.35;4.35;;;12.00;99.90;;;;;;4986984;28;20567;-63
2023/10/10 05:38:25;;;;;;;12.95;4.57;;;11.90;99.90;;;;;;4989053;28;20077;-59
2023/10/10 05:40:52;;;;;;;15.48;4.15;;;11.90;99.90;;;;;;4992770;28;20085;-59
2023/10/10 05:43:26;;;;;;;19.15;4.43;;;11.90;99.90;;;;;;4985680;28;20070;-60
2023/10/10 05:45:56;;;;;;;20.10;4.85;;;11.90;99.90;;;;;;4991679;28;20084;-59
2023/10/10 05:48:23;;;;;;;19.00;4.90;;;11.90;99.90;;;;;;4985610;28;20042;-60
2023/10/10 05:50:50;;;;;;;11.45;3.80;;;11.90;99.90;;;;;;4993409;28;20484;-60
2023/10/10 05:53:18;;;;;;;17.83;4.32;;;12.00;99.90;;;;;;4993445;28;20534;-59
2023/10/10 05:55:50;;;;;;;16.90;4.70;;;12.00;99.90;;;;;;4983953;28;20053;-60
2023/10/10 05:58:18;;;;;;;10.68;3.80;;;12.10;99.90;;;;;;4985021;28;20403;-60
2023/10/10 06:00:48;;;;;;;16.10;4.72;;;12.10;99.90;;;;;;4992381;28;20129;-60
2023/10/10 06:03:18;;;;;;;13.73;4.47;;;12.10;99.90;;;;;;4985235;28;20101;-59
2023/10/10 06:05:49;;;;;;;14.05;4.95;;;12.10;99.90;;;;;;4985571;28;20057;-60
2023/10/10 06:08:17;;;;;;;18.17;5.47;;;12.20;99.90;;;;;;4985339;28;20062;-60
2023/10/10 06:10:43;;;;;;;17.85;4.38;;;12.30;99.90;;;;;;4992956;28;20042;-60
2023/10/10 06:13:11;;;;;;;15.77;4.15;;;12.30;99.90;;;;;;4990602;28;20046;-59
2023/10/10 06:15:39;;;;;;;17.20;4.88;;;12.40;99.90;;;;;;4993491;28;20053;-58
2023/10/10 06:18:12;;;;;;;15.65;4.85;;;12.40;99.90;;;;;;4985301;28;20073;-60
2023/10/10 06:20:41;;;;;;;18.70;3.55;;;12.40;99.90;;;;;;4985986;28;20038;-59
2023/10/10 06:23:28;;;;;;;12.85;4.10;;;12.50;99.90;;;;;;4984451;28;20559;-60
2023/10/10 06:26:01;;;;;;;14.23;4.53;;;12.40;99.90;;;;;;4987075;28;20477;-60
2023/10/10 06:28:29;;;;;;;13.93;5.20;;;12.30;99.90;;;;;;4988256;28;20144;-60
2023/10/10 06:30:59;;;;;;;16.10;4.25;;;12.30;99.90;;;;;;4986445;28;20047;-60
2023/10/10 06:33:30;;;;;;;11.60;4.00;;;12.30;99.90;;;;;;4989123;28;20044;-60
2023/10/10 06:41:37;;;;;;;13.80;3.97;;;12.50;99.90;;;;;;4990948;28;20061;-60
2023/10/10 06:44:04;;;;;;;12.98;3.70;;;12.60;99.90;;;;;;4987697;28;20038;-59
2023/10/10 06:46:37;;;;;;;14.90;4.55;;;12.70;99.90;;;;;;4983855;28;20557;-60
2023/10/10 06:49:07;;;;;;;13.90;4.05;;;12.90;99.90;;;;;;4984381;28;20483;-60
2023/10/10 06:51:39;;;;;;;10.65;3.65;;;12.90;99.90;;;;;;4991217;28;20491;-60
2023/10/10 06:54:19;;;;;;;15.93;4.80;;;13.10;99.90;;;;;;4983490;28;20051;-61
2023/10/10 06:59:27;;;;;;;14.10;6.75;;;13.10;99.90;;;;;;4991825;28;20054;-60
2023/10/10 07:01:59;;;;;;;18.13;4.97;;;13.10;99.90;;;;;;4982848;28;20050;-60
2023/10/10 07:04:27;;;;;;;18.73;4.53;;;13.20;99.90;;;;;;4989962;28;20046;-59
2023/10/10 07:07:00;;;;;;;;;;;13.20;99.90;;;;;;4979973;28;20508;-60
2023/10/10 07:09:28;;;;;;;18.73;6.13;;;13.20;99.90;;;;;;4981530;28;20358;-60
2023/10/10 07:12:09;;;;;;;19.88;6.38;;;13.20;99.90;;;;;;4991283;28;20069;-60
2023/10/10 07:14:45;;;;;;;18.70;5.90;;;13.30;99.90;;;;;;4988387;28;20077;-60
2023/10/10 07:17:14;;;;;;;19.38;6.50;;;13.40;99.90;;;;;;4984773;28;20053;-59
2023/10/10 07:22:33;;;;;;;15.23;5.90;;;13.50;99.90;;;;;;4982769;28;20050;-59
2023/10/10 07:25:07;;;;;;;13.57;6.22;;;13.60;99.90;;;;;;4983954;28;20402;-60
2023/10/10 07:27:35;;;;;;;21.38;6.38;;;13.60;99.90;;;;;;4988152;28;20054;-60
2023/10/10 07:30:16;;;;;;;13.20;5.85;;;13.80;99.90;;;;;;4991137;28;20058;-60
2023/10/10 07:32:50;;;;;;;15.13;5.60;;;13.90;99.90;;;;;;4984414;28;20082;-60
2023/10/10 07:35:25;;;;;;;29.10;6.45;;;14.10;99.90;;;;;;4991456;28;20042;-61
2023/10/10 07:38:01;;;;;;;13.88;5.88;;;14.10;99.90;;;;;;4990727;28;20041;-60
2023/10/10 07:40:31;;;;;;;25.70;6.68;;;14.20;99.90;;;;;;4983434;28;20508;-59
2023/10/10 07:43:03;;;;;;;16.83;5.82;;;14.30;99.90;;;;;;4991700;28;20054;-60
2023/10/10 07:45:33;;;;;;;17.38;5.75;;;14.50;99.90;;;;;;4983083;28;20057;-60
2023/10/10 07:50:36;;;;;;;15.82;5.82;;;14.80;99.90;;;;;;4978646;28;20129;-60
2023/10/10 07:53:06;;;;;;;11.25;5.30;;;15.00;99.90;;;;;;4984988;28;20062;-60
2023/10/10 07:55:52;;;;;;;20.10;5.20;;;15.20;99.90;;;;;;4990018;28;20054;-60
2023/10/10 07:58:27;;;;;;;20.65;5.35;;;15.40;99.90;;;;;;4974164;28;20042;-60
2023/10/10 08:01:18;;;;;;;25.05;5.40;;;15.60;99.90;;;;;;4979053;28;20039;-59
2023/10/10 08:03:46;;;;;;;19.38;6.03;;;15.80;99.90;;;;;;4983692;28;20050;-60
2023/10/10 08:06:25;;;;;;;17.58;5.18;;;16.00;99.90;;;;;;4990771;28;20065;-60
2023/10/10 08:11:39;;;;;;;13.68;4.88;;;16.40;99.90;;;;;;4987402;28;20047;-59
2023/10/10 08:14:08;;;;;;;20.02;5.95;;;16.60;99.90;;;;;;4971306;28;20569;-60
2023/10/10 08:16:40;;;;;;;23.88;5.90;;;16.60;99.90;;;;;;4979416;28;20047;-60
2023/10/10 08:19:10;;;;;;;19.73;5.63;;;16.70;99.90;;;;;;4979798;28;20043;-59
2023/10/10 08:21:48;;;;;;;16.83;4.80;;;16.70;99.90;;;;;;4982007;28;20050;-60
2023/10/10 08:24:15;;;;;;;19.65;5.72;;;16.80;99.90;;;;;;4991010;28;20078;-60
2023/10/10 08:26:44;;;;;;;;;;;16.80;99.90;;;;;;4986766;28;20122;-58
2023/10/10 08:29:11;;;;;;;;;;;17.00;99.90;;;;;;4988257;28;19968;-59
2023/10/10 08:31:42;;;;;;;20.58;5.38;;;17.20;99.90;;;;;;4984674;28;20008;-60
2023/10/10 08:34:09;;;;;;;15.63;5.45;;;17.10;99.90;;;;;;4994366;28;20043;-60
2023/10/10 08:36:37;;;;;;;22.13;5.43;;;17.10;99.90;;;;;;4993566;28;20043;-60
2023/10/10 08:42:14;;;;;;;21.70;5.53;;;16.80;99.90;;;;;;4966253;28;20054;-59
2023/10/10 08:44:47;;;;;;;18.83;5.40;;;16.80;99.90;;;;;;4991370;28;20162;-60
2023/10/10 08:47:19;;;;;;;16.08;5.53;;;16.90;99.90;;;;;;4990016;28;20134;-59
2023/10/10 08:49:47;;;;;;;17.25;5.40;;;17.10;99.90;;;;;;4984942;28;20046;-60
2023/10/10 08:52:19;;;;;;;15.90;5.55;;;17.30;99.90;;;;;;4982967;28;20133;-60
2023/10/10 08:54:47;;;;;;;22.23;6.70;;;17.40;99.90;;;;;;4985774;28;20062;-60
2023/10/10 08:57:24;;;;;;;20.05;6.15;;;17.40;99.90;;;;;;4994150;28;20051;-60
2023/10/10 08:59:52;;;;;;;15.02;5.05;;;17.60;99.90;;;;;;4985997;28;20395;-60
2023/10/10 09:02:20;;;;;;;21.63;5.38;;;17.70;99.90;;;;;;4986560;28;20042;-60
2023/10/10 09:04:50;;;;;;;16.90;4.43;;;18.00;99.90;;;;;;4993922;28;20124;-59
2023/10/10 09:07:21;;;;;;;19.52;5.32;;;18.10;99.90;;;;;;4985867;28;20130;-61
2023/10/10 09:09:54;;;;;;;17.63;5.20;;;18.20;99.90;;;;;;4992131;28;20034;-60
2023/10/10 09:12:23;;;;;;;14.63;4.60;;;18.40;99.90;;;;;;4981633;28;20064;-59
2023/10/10 09:14:50;;;;;;;18.00;4.40;;;18.60;99.90;;;;;;4986189;28;20093;-60
2023/10/10 09:17:28;;;;;;;16.23;5.13;;;18.70;99.90;;;;;;4985953;28;20042;-60
2023/10/10 09:20:07;;;;;;;20.83;5.28;;;18.80;99.90;;;;;;4989464;28;20158;-61
2023/10/10 09:22:51;;;;;;;14.98;4.85;;;18.80;99.90;;;;;;4991373;28;20427;-60
2023/10/10 09:25:25;;;;;;;26.70;5.22;;;19.00;99.90;;;;;;4978975;28;20539;-61
2023/10/10 09:27:59;;;;;;;17.58;4.80;;;19.20;99.90;;;;;;4985626;28;20038;-60
2023/10/10 09:30:34;;;;;;;21.80;4.90;;;19.10;99.90;;;;;;4985124;28;20141;-60
2023/10/10 09:35:54;;;;;;;15.10;4.55;;;19.00;99.90;;;;;;4984660;28;20047;-59
2023/10/10 09:38:33;;;;;;;20.42;5.05;;;19.10;99.90;;;;;;4986031;28;20404;-61
2023/10/10 09:52:58;;;;;;;15.85;4.38;;;19.10;99.90;;;;;;4981539;28;20043;-61
2023/10/10 09:58:15;;;;;;;16.77;4.60;;;19.00;99.90;;;;;;4992632;28;20050;-61
2023/10/10 10:06:00;;;;;;;20.42;4.18;;;19.10;99.90;;;;;;4981508;28;20097;-61
2023/10/10 10:08:42;;;;;;;16.55;4.90;;;19.30;99.90;;;;;;4989197;28;20496;-61
2023/10/10 10:11:19;;;;;;;13.55;4.20;;;19.40;99.90;;;;;;4981966;28;20054;-59
2023/10/10 10:13:51;;;;;;;17.42;4.40;;;19.50;99.90;;;;;;4992786;28;20400;-61
2023/10/10 10:16:47;;;;;;;16.73;4.07;;;19.70;99.90;;;;;;4975276;28;20050;-59
2023/10/10 10:19:15;;;;;;;13.25;4.30;;;20.00;99.90;;;;;;4973426;28;20051;-61
2023/10/10 10:22:17;;;;;;;15.90;4.95;;;20.10;99.90;;;;;;4981771;28;20035;-60
2023/10/10 10:25:07;;;;;;;13.85;4.47;;;20.30;99.90;;;;;;4981862;28;20057;-60
2023/10/10 10:27:35;;;;;;;16.63;4.25;;;20.40;99.90;;;;;;4989548;28;20065;-61
2023/10/10 10:32:51;;;;;;;17.40;4.80;;;20.40;99.90;;;;;;4987198;28;20050;-59
2023/10/10 10:35:45;;;;;;;22.13;4.63;;;20.50;99.90;;;;;;4992299;28;20054;-61
2023/10/10 10:38:12;;;;;;;18.50;4.63;;;20.70;99.90;;;;;;4983824;28;20054;-60
2023/10/10 10:43:14;;;;;;;13.40;4.15;;;20.80;99.90;;;;;;4992385;28;20046;-60
2023/10/10 10:45:51;;;;;;;15.85;3.92;;;20.80;99.90;;;;;;4984015;28;20050;-60
2023/10/10 10:48:34;;;;;;;17.47;4.20;;;21.00;99.90;;;;;;4987874;28;20109;-61
2023/10/10 10:51:26;;;;;;;15.18;3.92;;;21.00;99.90;;;;;;4984449;28;20061;-61
2023/10/10 10:54:02;;;;;;;14.77;4.22;;;20.90;99.90;;;;;;4983710;28;20053;-61
2023/10/10 10:59:21;;;;;;;17.02;4.03;;;20.90;99.90;;;;;;4983343;28;20117;-61
2023/10/10 11:01:55;;;;;;;14.10;3.83;;;20.90;99.90;;;;;;4989837;28;20145;-61
2023/10/10 11:04:39;;;;;;;14.85;4.20;;;21.00;99.90;;;;;;4980091;28;20038;-60
2023/10/10 11:07:15;;;;;;;14.27;3.97;;;20.90;99.90;;;;;;4987776;28;20084;-61
2023/10/10 11:09:52;;;;;;;15.15;4.10;;;20.90;99.90;;;;;;4987607;28;20056;-61
2023/10/10 11:12:31;;;;;;;18.27;4.50;;;20.90;99.90;;;;;;4977551;28;20491;-57
2023/10/10 11:15:04;;;;;;;14.60;3.78;;;21.10;99.90;;;;;;4988817;28;20133;-60
2023/10/10 11:17:38;;;;;;;11.60;3.78;;;21.20;99.90;;;;;;4979498;28;20047;-61
2023/10/10 11:20:55;;;;;;;19.83;4.35;;;21.50;99.90;;;;;;4984107;28;20084;-61
2023/10/10 11:23:12;;;;;;;23.00;4.70;;;21.70;99.90;;;;;;4974764;28;20081;-61
2023/10/10 11:25:46;;;;;;;22.15;4.28;;;21.70;99.90;;;;;;4980345;28;20063;-61
2023/10/10 11:28:24;;;;;;;15.27;4.50;;;21.80;99.90;;;;;;4985220;28;20137;-61
2023/10/10 11:30:53;;;;;;;17.48;4.68;;;22.00;99.90;;;;;;4989248;28;20404;-61
2023/10/10 11:36:24;;;;;;;13.75;4.38;;;22.10;99.90;;;;;;4985516;28;20391;-61
2023/10/10 11:38:55;;;;;;;19.88;4.63;;;22.10;99.90;;;;;;4983344;28;20047;-61
2023/10/10 11:41:30;;;;;;;15.40;4.68;;;22.10;99.90;;;;;;4985355;28;20106;-61
2023/10/10 11:44:01;;;;;;;17.25;4.53;;;22.00;99.90;;;;;;4982967;28;20165;-60
2023/10/10 11:46:29;;;;;;;19.92;4.75;;;22.10;99.90;;;;;;4991521;28;20074;-61
2023/10/10 11:48:56;;;;;;;14.85;4.60;;;22.10;99.90;;;;;;4990900;28;20054;-61
2023/10/10 11:51:35;;;;;;;13.32;4.47;;;22.10;99.90;;;;;;4991451;28;20476;-61
2023/10/10 11:54:02;;;;;;;17.77;5.10;;;22.20;99.90;;;;;;4982867;28;20053;-61
2023/10/10 11:56:34;;;;;;;10.43;3.95;;;22.40;99.90;;;;;;4991575;28;20049;-61
2023/10/10 11:59:09;;;;;;;18.48;4.70;;;22.40;99.90;;;;;;4990263;28;20050;-61
2023/10/10 12:02:07;;;;;;;13.70;4.45;;;22.40;99.90;;;;;;4984098;28;20050;-60
2023/10/10 12:04:36;;;;;;;21.27;4.50;;;22.40;99.90;;;;;;4989588;28;20039;-61
2023/10/10 12:07:05;;;;;;;10.80;4.35;;;22.50;99.90;;;;;;4994514;28;20487;-60
2023/10/10 12:09:33;;;;;;;17.98;4.05;;;22.60;99.90;;;;;;4995168;28;20495;-61
2023/10/10 12:12:03;;;;;;;;;;;22.70;99.90;;;;;;4989229;28;20042;-61
2023/10/10 12:14:30;;;;;;;16.48;4.05;;;22.70;99.90;;;;;;4980651;28;19922;-61
2023/10/10 12:16:59;;;;;;;16.83;4.07;;;22.70;99.90;;;;;;4983736;28;20065;-61
2023/10/10 12:19:36;;;;;;;15.68;3.63;;;22.60;99.90;;;;;;4989745;28;20117;-61
2023/10/10 12:22:07;;;;;;;13.48;3.50;;;22.60;99.90;;;;;;4994847;28;20053;-60
2023/10/10 12:24:35;;;;;;;14.63;3.63;;;22.50;99.90;;;;;;4987407;28;20128;-61
2023/10/10 12:27:07;;;;;;;12.68;4.30;;;22.50;99.90;;;;;;4986478;28;20488;-61
2023/10/10 12:29:40;;;;;;;20.30;4.22;;;22.50;99.90;;;;;;4994963;28;20046;-61
2023/10/10 12:32:15;;;;;;;16.20;4.32;;;22.50;99.90;;;;;;4992350;28;20065;-61
2023/10/10 12:34:43;;;;;;;16.45;3.90;;;22.60;99.90;;;;;;4994513;28;20125;-59
2023/10/10 12:37:10;;;;;;;21.10;3.70;;;22.60;99.90;;;;;;4993971;28;20038;-61
2023/10/10 12:39:37;;;;;;;15.35;3.70;;;22.70;99.90;;;;;;4987628;28;20039;-60
2023/10/10 12:42:07;;;;;;;13.07;3.90;;;22.70;99.90;;;;;;4985253;28;20124;-61
2023/10/10 12:44:34;;;;;;;19.55;5.25;;;22.80;99.90;;;;;;4992939;28;20042;-60
2023/10/10 12:47:06;;;;;;;;;;;22.80;99.90;;;;;;4992731;28;20057;-61
2023/10/10 12:49:36;;;;;;;15.80;3.85;;;22.70;99.90;;;;;;4987505;28;20434;-61
2023/10/10 12:52:11;;;;;;;20.15;4.10;;;22.70;99.90;;;;;;4990878;28;20138;-61
2023/10/10 12:54:41;;;;;;;11.85;4.22;;;22.70;99.90;;;;;;4985121;28;20042;-59
2023/10/10 12:57:13;;;;;;;16.75;4.18;;;22.70;99.90;;;;;;4994129;28;20046;-61
2023/10/10 12:59:46;;;;;;;12.20;3.65;;;22.70;99.90;;;;;;4994091;28;20062;-61
2023/10/10 13:02:15;;;;;;;19.77;4.63;;;22.70;99.90;;;;;;4989039;28;20034;-61
2023/10/10 13:04:46;;;;;;;12.70;4.45;;;22.70;99.90;;;;;;4991523;28;20119;-60
2023/10/10 13:07:16;;;;;;;13.18;3.90;;;22.70;99.90;;;;;;4982716;28;20061;-61
2023/10/10 13:09:43;;;;;;;15.18;3.70;;;22.70;99.90;;;;;;4981687;28;20126;-61
2023/10/10 13:12:18;;;;;;;;;;;22.70;99.90;;;;;;4984826;28;20034;-61
2023/10/10 13:14:50;;;;;;;18.33;3.95;;;22.70;99.90;;;;;;4994498;28;20280;-61
2023/10/10 13:19:52;;;;;;;15.68;4.72;;;22.80;99.90;;;;;;4990791;28;20085;-61
2023/10/10 13:22:22;;;;;;;17.52;4.60;;;22.80;99.90;;;;;;4984609;28;20046;-61
2023/10/10 13:24:49;;;;;;;13.25;4.50;;;22.60;99.90;;;;;;4984192;28;20108;-61
2023/10/10 13:27:17;;;;;;;13.88;3.78;;;22.50;99.90;;;;;;4985094;28;20043;-60
2023/10/10 13:29:44;;;;;;;18.00;4.03;;;22.40;99.90;;;;;;4994114;28;20042;-60
2023/10/10 13:32:11;;;;;;;15.63;3.97;;;22.30;99.90;;;;;;4993190;28;20034;-60
2023/10/10 13:34:38;;;;;;;11.15;3.65;;;22.30;99.90;;;;;;4993549;28;20038;-61
2023/10/10 13:37:07;;;;;;;12.95;3.60;;;22.30;99.90;;;;;;4985513;28;20054;-61
2023/10/10 13:39:47;;;;;;;11.07;4.20;;;22.30;99.90;;;;;;4987375;28;20043;-60
2023/10/10 13:42:14;;;;;;;15.88;4.30;;;22.40;99.90;;;;;;4989957;28;20054;-61
2023/10/10 13:44:42;;;;;;;11.38;3.40;;;22.50;99.90;;;;;;4977476;28;20403;-60
2023/10/10 13:47:10;;;;;;;13.60;4.18;;;22.50;99.90;;;;;;4992373;28;20077;-60
2023/10/10 13:49:44;;;;;;;15.40;4.75;;;22.60;99.90;;;;;;4984990;28;20081;-61
2023/10/10 13:52:13;;;;;;;14.23;4.03;;;22.80;99.90;;;;;;4981668;28;20535;-61
2023/10/10 13:54:40;;;;;;;18.38;4.30;;;22.90;99.90;;;;;;4988507;28;20191;-61
2023/10/10 13:57:07;;;;;;;18.55;4.38;;;23.00;99.90;;;;;;4990918;28;20423;-60
2023/10/10 13:59:34;;;;;;;13.00;3.95;;;23.10;99.90;;;;;;4987359;28;20414;-61
2023/10/10 14:02:03;;;;;;;11.88;3.83;;;23.20;99.90;;;;;;4984693;28;20500;-60
2023/10/10 14:04:45;;;;;;;14.73;4.90;;;23.20;99.90;;;;;;4979373;28;20054;-60
2023/10/10 14:07:16;;;;;;;20.73;4.80;;;23.20;99.90;;;;;;4991967;28;20104;-61
2023/10/10 14:09:47;;;;;;;16.08;4.40;;;23.30;99.90;;;;;;4983210;28;20057;-61
2023/10/10 14:12:31;;;;;;;19.05;4.55;;;23.30;99.90;;;;;;4973271;28;20427;-61
2023/10/10 14:14:59;;;;;;;16.17;3.88;;;23.40;99.90;;;;;;4990309;28;20051;-61
2023/10/10 14:17:26;;;;;;;11.15;4.38;;;23.30;99.90;;;;;;4982748;28;20487;-61
2023/10/10 14:19:53;;;;;;;;;;;23.50;99.90;;;;;;4993189;28;20031;-61
2023/10/10 14:22:23;;;;;;;12.65;3.92;;;23.50;99.90;;;;;;4983911;28;19922;-61
2023/10/10 14:24:52;;;;;;;14.18;5.18;;;23.50;99.90;;;;;;4984946;28;20121;-61
2023/10/10 14:27:21;;;;;;;14.98;4.00;;;23.50;99.90;;;;;;4984825;28;20511;-61
2023/10/10 14:29:50;;;;;;;14.55;4.10;;;23.40;99.90;;;;;;4992214;28;20050;-61
2023/10/10 14:32:16;;;;;;;16.75;4.32;;;23.40;99.90;;;;;;4983712;28;20042;-61
2023/10/10 14:35:04;;;;;;;10.45;3.90;;;23.30;99.90;;;;;;4979175;28;20508;-61
2023/10/10 14:37:31;;;;;;;17.23;4.15;;;23.30;99.90;;;;;;4992454;28;20049;-60
2023/10/10 14:40:18;;;;;;;17.85;4.72;;;23.20;99.90;;;;;;4980406;28;20437;-61
2023/10/10 14:42:45;;;;;;;13.82;4.45;;;23.30;99.90;;;;;;4984204;28;20034;-58
2023/10/10 14:45:12;;;;;;;;;;;23.20;99.90;;;;;;4984246;28;20043;-60
2023/10/10 14:47:43;;;;;;;11.90;4.17;;;23.20;99.90;;;;;;4992189;28;20390;-61
2023/10/10 14:50:12;;;;;;;22.25;4.90;;;23.20;99.90;;;;;;4980780;28;20137;-60
2023/10/10 14:52:47;;;;;;;18.20;4.55;;;23.30;99.90;;;;;;4980552;28;20042;-60
2023/10/10 14:55:24;;;;;;;14.70;3.80;;;23.40;99.90;;;;;;4991165;28;20049;-60
2023/10/10 14:57:55;;;;;;;16.35;4.25;;;23.50;99.90;;;;;;4991759;28;20046;-61
2023/10/10 15:00:27;;;;;;;9.23;4.35;;;23.50;99.90;;;;;;4991836;28;20042;-61
2023/10/10 15:02:55;;;;;;;11.82;4.88;;;23.40;99.90;;;;;;4988512;28;20399;-61
2023/10/10 15:05:26;;;;;;;12.10;4.07;;;23.40;99.90;;;;;;4980399;28;20546;-60
2023/10/10 15:07:54;;;;;;;18.27;4.95;;;23.40;99.90;;;;;;4980609;28;20046;-61
2023/10/10 15:10:30;;;;;;;12.35;4.18;;;23.40;99.90;;;;;;4985804;28;20550;-61
2023/10/10 15:12:58;;;;;;;14.48;4.03;;;23.20;99.90;;;;;;4992047;28;20053;-61
2023/10/10 15:15:25;;;;;;;15.50;4.85;;;23.10;99.90;;;;;;4975853;28;20176;-60
2023/10/10 15:17:52;;;;;;;16.38;4.40;;;23.00;99.90;;;;;;4982442;28;20500;-61
2023/10/10 15:20:19;;;;;;;14.18;4.07;;;22.80;99.90;;;;;;4983449;28;20043;-61
2023/10/10 15:22:46;;;;;;;;;;;22.50;99.90;;;;;;4985796;28;20046;-61
2023/10/10 15:25:14;;;;;;;11.13;4.47;;;22.20;99.90;;;;;;4982086;28;19969;-60
2023/10/10 15:27:41;;;;;;;10.27;3.92;;;22.10;99.90;;;;;;4977349;28;20574;-61
2023/10/10 15:30:09;;;;;;;12.82;3.70;;;22.10;99.90;;;;;;4991310;28;20065;-61
2023/10/10 15:32:46;;;;;;;16.10;4.00;;;22.10;99.90;;;;;;4982725;28;20057;-61
2023/10/10 15:35:15;;;;;;;;;;;21.80;99.90;;;;;;4992160;28;20050;-61
2023/10/10 15:37:42;;;;;;;13.77;4.15;;;21.60;99.90;;;;;;4985359;28;20291;-60
2023/10/10 15:40:20;;;;;;;12.75;3.80;;;21.40;99.90;;;;;;4972694;28;20043;-60
2023/10/10 15:42:50;;;;;;;14.95;4.20;;;21.30;99.90;;;;;;4983773;28;20077;-60
2023/10/10 15:45:20;;;;;;;13.68;5.05;;;21.20;99.90;;;;;;4983506;28;20070;-60
2023/10/10 15:47:49;;;;;;;12.85;4.75;;;21.10;99.90;;;;;;4980547;28;21051;-61
2023/10/10 15:50:21;;;;;;;11.85;4.00;;;21.00;99.90;;;;;;4981453;28;20050;-61
2023/10/10 15:52:51;;;;;;;14.25;4.40;;;20.90;99.90;;;;;;4991655;28;20443;-59
2023/10/10 15:55:32;;;;;;;20.90;4.97;;;20.80;99.90;;;;;;4981217;28;20050;-60
2023/10/10 15:57:59;;;;;;;11.43;4.57;;;20.70;99.90;;;;;;4972166;28;20121;-61
2023/10/10 16:00:32;;;;;;;14.15;4.85;;;20.60;99.90;;;;;;4983661;28;20070;-61
2023/10/10 16:03:06;;;;;;;16.42;4.85;;;20.40;99.90;;;;;;4977996;28;20042;-59
2023/10/10 16:05:39;;;;;;;15.00;4.32;;;20.30;99.90;;;;;;4985142;28;20034;-61
2023/10/10 16:08:05;;;;;;;19.73;4.25;;;20.00;99.90;;;;;;4990878;28;20038;-60
2023/10/10 16:10:36;;;;;;;15.27;4.03;;;19.80;99.90;;;;;;4990185;28;20049;-60
2023/10/10 16:13:07;;;;;;;10.00;4.18;;;19.60;99.90;;;;;;4988101;28;20057;-59
2023/10/10 16:15:36;;;;;;;11.98;4.25;;;19.40;99.90;;;;;;4987565;28;20121;-59
2023/10/10 16:18:04;;;;;;;17.20;4.03;;;19.30;99.90;;;;;;4986421;28;20081;-60
2023/10/10 16:20:35;;;;;;;13.02;4.57;;;19.30;99.90;;;;;;4989159;28;20111;-61
2023/10/10 16:23:02;;;;;;;15.13;4.35;;;19.20;99.90;;;;;;4988590;28;20054;-59